Αρχική σελίδα
METAR-TAF:

METAR-TAF

Αεροδρόμια :

Independence, Κάνσας, Ηνωμένες Πολιτείες Αμερικής

γεωγραφικό πλάτος: 37-09-30N, γεωγραφικό μήκος: 095-46-42W, υψόμετρο: 251 μ

Παρών καιρός

Η αναφορά έγινε 17 λεπτά πριν, στις 23:55 UTC
Άνεμος 6 kt από BA
Θερμοκρασία 30°C
Υγρασία 52%
Πίεση 1014 hPa
Ορατότητα: 16.1 χλμ
Καθαρός ουρανός

METAR: KIDP 222355Z AUTO 04006KT 10SM CLR 30/19 A2993 RMK AO2 T03000185 10307 20270 403320190

Χρόνος: 19:12 (00:12 UTC)


TAF: λείπει

Μετεωρολογικές αναφορές και προγνώσεις για περισσότερα από 4000 αεροδρόμια (δελτία METAR και TAF).

Οι διαθέσιμοι σταθμοί απεικονίζονται στο χάρτη με κίτρινες και κόκκινες κουκκίδες.

Μετακινήστε το ποντίκι πάνω από τις κουκκίδες για να δείτε το όνομα του σταθμού.

Στη συνέχεια, κάντε κλικ για να δείτε τις μετεωρολογικές αναφορές και τις προγνώσεις καιρού.

Για να αλλάξετε το χάρτη: κάντε κλικ στα πράσινα κουμπιά με τον μαύρο σταυρό για να ζουμάρετε, στο πράσινο κουμπί με την παύλα για να αφαιρέσετε το ζουμ ή στα πράσινα βέλη για να αντιπαραβάλλετε χάρτες.


METAR-TAF: